Westford, MA (01886)

7:03 PM EDT on September 02, 2014 (GMT -0400)
Wallace Astrophysical Observatory | Change Station
CLOSE
Current Station
Personal Weather Station
Location: Westford, MA
Elevation: 351 ft
Nearby Weather Stations
Active Advisory: Areal Flood Advisory

Elev 351 ft 42.61 °N, 71.48 °W | Updated 6 minutes ago

Clear
Clear
77.5 °F
Feels Like 79 °F
N
0.0
Wind Variable Wind from South
Gusts 0.0 mph

Today
High -- | Low -- °F
--% Chance of Precip.
Yesterday
High -- | Low -- °F
Precip. -- in
6:11 AM 7:18 PM
First Quarter, 56% visible
Pressure 29.81 in
Visibility 10.0 miles
Clouds Scattered Clouds 10000 ft
Heat Index 79 °F
Dew Point 74 °F
Humidity 89%
Rainfall 0.00 in
Snow Depth Not available.
UV 0 out of 12
Pollen 8.20 out of 12
Air Quality Not available.
Flu Activity Not available.
METAR KBED 022256Z 21007KT 10SM SCT100 26/22 A2978 RMK AO2 SLP093 T02560222

More Conditions Fewer Conditions

Pressure 29.81 in
Visibility 10.0 miles
Clouds Scattered Clouds 10000 ft
Heat Index 79 °F
Dew Point 74 °F
Humidity 89%
Rainfall 0.00 in
Snow Depth Not available.
UV 0 out of 12
Pollen 8.20 out of 12
Air Quality Not available.
Flu Activity Not available.
METAR KBED 022256Z 21007KT 10SM SCT100 26/22 A2978 RMK AO2 SLP093 T02560222

More Conditions Fewer Conditions

10-Day Weather Forecast

Almanac

Astronomy

Sep. 02, 2014 Rise Set
Actual Time 6:11 AM EDT 7:18 PM EDT
Civil Twilight 5:42 AM EDT 7:47 PM EDT
Nautical Twilight 5:08 AM EDT 8:21 PM EDT
Astronomical Twilight 4:31 AM EDT 8:57 PM EDT
Moon 2:02 PM EDT No Moon Set
Length of Visible Light 14h 04m
Length of Day
13h 06m
Tomorrow will be 2m 46s shorter.
First Quarter, 56% of the Moon is Illuminated
Today
First Quarter
Sep 8
Full
Sep 15
Last Quarter
Sep 24
New
Oct 1
First Quarter

Today's Extremes

State Highs State Lows

Community

WunderPhotos

Upload Photos

1,749,794 photos uploaded!

Nearby

Air Quality

  Air Quality AQ Index Pollutant
Tuesday Good
OZONE
Tuesday Good
PM2.5
Wednesday Good
PM2.5
Wednesday Good
OZONE

Snow Depth

Station Depth Elevation
No new snow has been reported.

Earthquake Activity

City Distance Mag. Time & Date
No recent earthquake activity has been reported nearby.
Minimum magnitude displayed is 2.5.

Coastal Water Temperatures

Place Temperature
Boston, MA 66.9 °F
Providence, RI 75.0 °F
Fall River, MA 75.9 °F
Conimicut Light, RI 73.9 °F

Nearby Weather Stations